createdAt,value
2022-10-26T00:01:16.872Z,6.05
2022-10-26T00:03:46.406Z,6.32
2022-10-26T00:06:20.551Z,9.65
2022-10-26T00:08:49.382Z,9.57
2022-10-26T00:11:18.345Z,6.22
2022-10-26T00:13:48.290Z,5.63
2022-10-26T00:16:22.642Z,5.10
2022-10-26T00:18:51.047Z,6.45
2022-10-26T00:21:19.735Z,5.15
2022-10-26T00:23:48.008Z,4.80
2022-10-26T00:26:16.270Z,5.13
2022-10-26T00:28:44.513Z,3.63
2022-10-26T00:31:17.362Z,4.30
2022-10-26T00:33:46.125Z,4.70
2022-10-26T00:36:14.390Z,4.13
2022-10-26T00:38:42.638Z,4.80
2022-10-26T00:41:16.534Z,4.10
2022-10-26T00:43:44.802Z,4.20
2022-10-26T00:46:21.957Z,7.45
2022-10-26T00:49:20.908Z,7.88
2022-10-26T00:51:52.693Z,6.10
2022-10-26T00:54:22.325Z,4.97
2022-10-26T00:56:52.629Z,5.10
2022-10-26T00:59:22.662Z,4.40
2022-10-26T01:01:51.555Z,5.10
2022-10-26T01:04:20.630Z,4.80
2022-10-26T01:06:50.492Z,8.30
2022-10-26T01:09:20.867Z,6.60
2022-10-26T01:11:49.169Z,8.60
2022-10-26T01:14:19.540Z,17.52
2022-10-26T01:16:59.613Z,12.60
2022-10-26T01:19:52.503Z,10.32
2022-10-26T01:22:27.084Z,7.72
2022-10-26T01:25:30.777Z,7.15
2022-10-26T01:28:01.378Z,7.75
2022-10-26T01:30:46.419Z,56.80
2022-10-26T01:33:59.565Z,141.63
2022-10-26T01:36:38.801Z,120.32
2022-10-26T01:39:40.377Z,52.40
2022-10-26T01:42:10.523Z,42.67
2022-10-26T01:45:01.856Z,46.33
2022-10-26T01:47:32.098Z,29.50
2022-10-26T01:50:02.798Z,31.20
2022-10-26T01:52:31.038Z,33.67
2022-10-26T01:55:25.332Z,24.10
2022-10-26T01:58:00.290Z,21.33
2022-10-26T02:00:29.826Z,19.73
2022-10-26T02:03:21.752Z,18.90
2022-10-26T02:06:17.833Z,12.02
2022-10-26T02:09:16.699Z,7.80
2022-10-26T02:11:48.494Z,7.00
2022-10-26T02:14:41.854Z,6.45
2022-10-26T02:17:34.840Z,9.50
2022-10-26T02:20:09.787Z,11.30
2022-10-26T02:22:48.429Z,14.68
2022-10-26T02:25:24.820Z,14.57
2022-10-26T02:27:58.437Z,17.05
2022-10-26T02:30:27.304Z,19.58
2022-10-26T02:32:58.071Z,20.33
2022-10-26T02:35:38.444Z,21.35
2022-10-26T02:38:11.021Z,22.40
2022-10-26T02:40:40.228Z,25.33
2022-10-26T02:43:14.031Z,26.50
2022-10-26T02:45:49.932Z,24.02
2022-10-26T02:48:18.426Z,21.50
2022-10-26T02:51:05.860Z,20.13
2022-10-26T02:53:38.980Z,18.55
2022-10-26T02:56:22.988Z,15.45
2022-10-26T02:58:56.387Z,12.90
2022-10-26T03:01:25.006Z,12.02
2022-10-26T03:03:57.398Z,10.70
2022-10-26T03:06:26.069Z,8.77
2022-10-26T03:08:54.265Z,10.20
2022-10-26T03:11:22.558Z,9.20
2022-10-26T03:13:50.686Z,9.38
2022-10-26T03:16:19.454Z,9.68
2022-10-26T03:18:47.615Z,8.45
2022-10-26T03:21:15.627Z,7.85
2022-10-26T03:23:43.880Z,8.13
2022-10-26T03:26:11.915Z,7.38
2022-10-26T03:28:40.143Z,7.63
2022-10-26T03:31:08.609Z,8.82
2022-10-26T03:36:10.193Z,8.90
2022-10-26T03:38:38.314Z,8.10
2022-10-26T03:41:06.615Z,7.07
2022-10-26T03:43:34.771Z,6.90
2022-10-26T03:46:02.893Z,6.40
2022-10-26T03:48:31.124Z,6.50
2022-10-26T03:50:59.971Z,6.47
2022-10-26T03:53:28.433Z,8.25
2022-10-26T03:55:56.456Z,6.80
2022-10-26T04:00:57.818Z,7.15
2022-10-26T04:03:25.995Z,7.57
2022-10-26T04:05:54.018Z,6.22
2022-10-26T04:08:22.252Z,7.13
2022-10-26T04:10:50.357Z,6.97
2022-10-26T04:13:18.420Z,7.50
2022-10-26T04:15:46.681Z,8.43
2022-10-26T04:18:14.924Z,7.30
2022-10-26T04:20:43.275Z,7.90
2022-10-26T04:23:16.739Z,7.30
2022-10-26T04:25:45.508Z,8.85
2022-10-26T04:28:14.760Z,8.30
2022-10-26T04:30:43.242Z,9.75
2022-10-26T04:33:11.331Z,9.98
2022-10-26T04:35:39.476Z,11.45
2022-10-26T04:38:08.278Z,20.00
2022-10-26T04:40:36.439Z,21.42
2022-10-26T04:43:04.576Z,23.02
2022-10-26T04:45:33.122Z,22.45
2022-10-26T04:48:02.196Z,20.00
2022-10-26T04:50:30.443Z,18.83
2022-10-26T04:52:58.632Z,17.13
2022-10-26T04:55:27.164Z,15.25
2022-10-26T04:57:57.246Z,14.43
2022-10-26T05:00:28.868Z,12.40
2022-10-26T05:03:04.253Z,10.90
2022-10-26T05:05:34.204Z,10.00
2022-10-26T05:08:02.422Z,9.57
2022-10-26T05:10:30.738Z,10.32
2022-10-26T05:13:00.493Z,11.05
2022-10-26T05:15:29.265Z,10.90
2022-10-26T05:17:58.141Z,11.38
2022-10-26T05:20:27.974Z,10.98
2022-10-26T05:22:56.919Z,13.02
2022-10-26T05:25:25.594Z,12.02
2022-10-26T05:27:57.821Z,13.10
2022-10-26T05:30:26.001Z,12.18
2022-10-26T05:33:02.367Z,12.70
2022-10-26T05:35:30.829Z,12.45
2022-10-26T05:37:59.285Z,11.93
2022-10-26T05:40:27.594Z,11.27
2022-10-26T05:43:01.383Z,12.05
2022-10-26T05:45:30.429Z,11.90
2022-10-26T05:48:01.618Z,11.40
2022-10-26T05:50:31.439Z,13.07
2022-10-26T05:52:59.482Z,12.63
2022-10-26T05:55:28.193Z,12.73
2022-10-26T05:57:58.610Z,13.13
2022-10-26T06:00:29.510Z,12.60
2022-10-26T06:03:22.028Z,13.00
2022-10-26T06:05:57.939Z,15.90
2022-10-26T06:08:30.181Z,16.77
2022-10-26T06:10:58.927Z,18.30
2022-10-26T06:13:27.393Z,18.58
2022-10-26T06:16:07.823Z,19.85
2022-10-26T06:18:59.632Z,20.08
2022-10-26T06:21:33.136Z,20.55
2022-10-26T06:24:11.808Z,21.17
2022-10-26T06:26:58.193Z,22.90
2022-10-26T06:29:49.416Z,23.88
2022-10-26T06:32:18.538Z,23.10
2022-10-26T06:34:51.054Z,22.83
2022-10-26T06:37:20.259Z,21.48
2022-10-26T06:39:54.051Z,22.15
2022-10-26T06:42:23.352Z,23.88
2022-10-26T06:44:51.713Z,23.08
2022-10-26T06:47:25.822Z,22.67
2022-10-26T06:50:04.387Z,22.20
2022-10-26T06:52:49.507Z,23.58
2022-10-26T06:55:18.295Z,22.15
2022-10-26T06:57:47.151Z,22.90
2022-10-26T07:00:24.586Z,23.50
2022-10-26T07:02:53.177Z,22.48
2022-10-26T07:05:21.916Z,23.08
2022-10-26T07:07:50.234Z,21.27
2022-10-26T07:10:18.591Z,20.85
2022-10-26T07:12:46.884Z,19.70
2022-10-26T07:15:14.951Z,21.05
2022-10-26T07:17:50.697Z,21.60
2022-10-26T07:20:20.657Z,22.48
2022-10-26T07:22:56.832Z,21.15
2022-10-26T07:25:26.666Z,22.42
2022-10-26T07:27:59.076Z,22.05
2022-10-26T07:30:28.383Z,24.05
2022-10-26T07:33:06.681Z,24.23
2022-10-26T07:35:35.610Z,24.02
2022-10-26T07:38:04.125Z,23.17
2022-10-26T07:40:32.866Z,22.40
2022-10-26T07:43:02.011Z,23.48
2022-10-26T07:45:30.865Z,23.23
2022-10-26T07:47:59.016Z,22.25
2022-10-26T07:50:28.274Z,21.80
2022-10-26T07:52:56.450Z,20.88
2022-10-26T07:55:24.647Z,20.50
2022-10-26T07:57:54.684Z,20.80
2022-10-26T08:00:23.608Z,18.90
2022-10-26T08:02:51.954Z,20.25
2022-10-26T08:05:20.260Z,22.77
2022-10-26T08:07:49.197Z,22.33
2022-10-26T08:10:17.919Z,21.00
2022-10-26T08:12:46.024Z,18.73
2022-10-26T08:15:14.366Z,17.02
2022-10-26T08:17:42.722Z,16.20
2022-10-26T08:20:11.422Z,16.42
2022-10-26T08:22:39.798Z,17.33
2022-10-26T08:25:08.139Z,15.75
2022-10-26T08:27:36.507Z,17.05
2022-10-26T08:30:05.157Z,16.23
2022-10-26T08:32:33.482Z,16.55
2022-10-26T08:35:02.108Z,12.60
2022-10-26T08:37:30.819Z,12.38
2022-10-26T08:40:00.642Z,10.80
2022-10-26T08:42:43.867Z,10.05
2022-10-26T08:45:37.107Z,10.48
2022-10-26T08:48:43.731Z,9.85
2022-10-26T08:51:23.201Z,11.13
2022-10-26T08:54:17.260Z,9.95
2022-10-26T08:56:57.694Z,7.88
2022-10-26T08:59:44.285Z,6.68
2022-10-26T09:02:15.331Z,5.00
2022-10-26T09:04:43.965Z,2.95
2022-10-26T09:07:26.399Z,2.80
2022-10-26T09:09:54.631Z,4.68
2022-10-26T09:12:44.286Z,5.20
2022-10-26T09:15:27.641Z,6.50
2022-10-26T09:18:16.442Z,8.52
2022-10-26T09:20:50.197Z,8.02
2022-10-26T09:23:30.499Z,7.35
2022-10-26T09:26:04.113Z,6.70
2022-10-26T09:28:38.309Z,7.50
2022-10-26T09:31:06.969Z,9.20
2022-10-26T09:33:39.959Z,8.18
2022-10-26T09:36:16.112Z,7.70
2022-10-26T09:38:52.252Z,6.60
2022-10-26T09:41:32.271Z,8.35
2022-10-26T09:44:06.578Z,7.65
2022-10-26T09:47:04.032Z,6.85
2022-10-26T09:49:48.160Z,5.88
2022-10-26T09:52:17.480Z,6.68
2022-10-26T09:54:46.812Z,4.03
2022-10-26T09:57:19.269Z,4.03
2022-10-26T09:59:48.334Z,4.28
2022-10-26T10:02:40.251Z,4.60
2022-10-26T10:08:24.578Z,5.00
2022-10-26T10:11:02.835Z,4.70
2022-10-26T10:13:43.144Z,5.28
2022-10-26T10:16:22.773Z,4.57
2022-10-26T10:19:01.865Z,4.32
2022-10-26T10:21:45.025Z,4.47
2022-10-26T10:24:36.635Z,4.25
2022-10-26T10:27:13.781Z,5.82
2022-10-26T10:29:44.749Z,5.32
2022-10-26T10:32:21.671Z,7.85
2022-10-26T10:34:52.749Z,5.35
2022-10-26T10:37:38.302Z,5.97
2022-10-26T10:40:22.420Z,5.85
2022-10-26T10:42:52.873Z,6.05
2022-10-26T10:45:22.981Z,9.80
2022-10-26T10:48:14.141Z,7.57
2022-10-26T10:51:11.482Z,5.43
2022-10-26T10:53:54.523Z,4.93
2022-10-26T10:56:34.980Z,5.32
2022-10-26T10:59:27.160Z,6.05
2022-10-26T11:05:27.389Z,5.72
2022-10-26T11:07:59.318Z,4.60
2022-10-26T11:10:32.220Z,4.82
2022-10-26T11:13:03.644Z,5.05
2022-10-26T11:15:35.618Z,4.40
2022-10-26T11:18:16.268Z,5.38
2022-10-26T11:21:00.289Z,5.00
2022-10-26T11:23:44.277Z,5.38
2022-10-26T11:26:34.224Z,5.05
2022-10-26T11:29:21.676Z,5.35
2022-10-26T11:32:02.243Z,5.22
2022-10-26T11:35:01.559Z,4.93
2022-10-26T11:38:00.386Z,5.75
2022-10-26T11:40:56.852Z,5.22
2022-10-26T11:43:32.731Z,6.55
2022-10-26T11:46:07.001Z,6.95
2022-10-26T11:48:38.533Z,6.07
2022-10-26T11:51:14.265Z,5.45
2022-10-26T11:53:44.880Z,4.97
2022-10-26T11:56:33.686Z,6.90
2022-10-26T11:59:03.810Z,5.70
2022-10-26T12:01:34.458Z,5.78
2022-10-26T12:04:03.964Z,6.25
2022-10-26T12:06:34.495Z,5.85
2022-10-26T12:09:12.662Z,5.93
2022-10-26T12:11:47.330Z,6.07
2022-10-26T12:14:18.495Z,5.43
2022-10-26T12:16:56.251Z,7.05
2022-10-26T12:19:49.567Z,5.65
2022-10-26T12:22:21.519Z,7.15
2022-10-26T12:25:15.612Z,6.53
2022-10-26T12:30:19.278Z,7.60
2022-10-26T12:32:54.277Z,7.22
2022-10-26T12:35:39.665Z,6.65
2022-10-26T12:38:50.774Z,6.03
2022-10-26T12:41:24.695Z,5.78
2022-10-26T12:43:56.845Z,5.70
2022-10-26T12:48:55.955Z,4.32
2022-10-26T12:51:25.436Z,4.45
2022-10-26T12:54:08.918Z,4.95
2022-10-26T12:56:55.808Z,4.95
2022-10-26T12:59:38.436Z,5.53
2022-10-26T13:07:27.729Z,7.40
2022-10-26T13:10:27.499Z,6.43
2022-10-26T13:13:01.996Z,5.60
2022-10-26T13:15:40.695Z,5.13
2022-10-26T13:18:17.829Z,6.13
2022-10-26T13:21:15.306Z,6.50
2022-10-26T13:23:58.608Z,7.20
2022-10-26T13:26:28.889Z,6.45
2022-10-26T13:29:00.281Z,7.68
2022-10-26T13:31:31.650Z,7.75
2022-10-26T13:34:04.205Z,7.60
2022-10-26T13:36:39.861Z,8.98
2022-10-26T13:39:21.609Z,10.23
2022-10-26T13:41:53.136Z,9.88
2022-10-26T13:44:47.934Z,11.35
2022-10-26T13:47:50.441Z,10.25
2022-10-26T13:50:41.671Z,12.70
2022-10-26T13:53:20.270Z,12.05
2022-10-26T13:56:04.258Z,10.10
2022-10-26T13:58:39.280Z,9.00
2022-10-26T14:01:10.816Z,8.10
2022-10-26T14:03:40.526Z,8.52
2022-10-26T14:06:17.464Z,10.23
2022-10-26T14:08:49.646Z,9.63
2022-10-26T14:11:23.804Z,7.88
2022-10-26T14:13:53.279Z,7.53
2022-10-26T14:16:31.121Z,7.03
2022-10-26T14:18:59.897Z,8.48
2022-10-26T14:21:28.449Z,8.02
2022-10-26T14:23:59.868Z,7.95
2022-10-26T14:26:42.060Z,8.00
2022-10-26T14:34:22.311Z,6.25
2022-10-26T14:36:55.928Z,6.65
2022-10-26T14:39:58.612Z,7.10
2022-10-26T14:42:44.194Z,7.05
2022-10-26T14:45:50.742Z,7.70
2022-10-26T14:48:30.117Z,4.95
2022-10-26T14:51:19.414Z,5.07
2022-10-26T14:53:53.583Z,5.35
2022-10-26T14:56:39.112Z,6.05
2022-10-26T14:59:27.429Z,5.38
2022-10-26T15:02:21.550Z,5.88
2022-10-26T15:05:05.168Z,4.47
2022-10-26T15:07:38.856Z,5.28
2022-10-26T15:10:38.141Z,5.25
2022-10-26T15:13:30.219Z,5.75
2022-10-26T15:18:33.198Z,5.50
2022-10-26T15:21:02.510Z,5.85
2022-10-26T15:23:31.663Z,6.60
2022-10-26T15:26:02.600Z,6.32
2022-10-26T15:28:41.897Z,6.22
2022-10-26T15:31:14.057Z,10.43
2022-10-26T15:34:06.067Z,6.90
2022-10-26T15:36:36.292Z,6.95
2022-10-26T15:39:07.336Z,17.73
2022-10-26T15:44:17.323Z,11.57
2022-10-26T15:46:46.161Z,7.15
2022-10-26T15:49:22.033Z,6.63
2022-10-26T15:51:50.693Z,6.43
2022-10-26T15:54:18.852Z,6.10
2022-10-26T15:56:47.288Z,6.35
2022-10-26T15:59:18.568Z,5.57
2022-10-26T16:01:47.279Z,5.47
2022-10-26T16:04:15.738Z,6.00
2022-10-26T16:06:44.257Z,5.22
2022-10-26T16:09:18.453Z,6.88
2022-10-26T16:11:46.686Z,5.88
2022-10-26T16:14:15.026Z,5.30
2022-10-26T16:16:43.207Z,6.07
2022-10-26T16:19:29.764Z,5.88
2022-10-26T16:21:59.297Z,6.55
2022-10-26T16:24:29.341Z,6.03
2022-10-26T16:26:58.145Z,6.90
2022-10-26T16:29:26.341Z,4.65
2022-10-26T16:31:54.696Z,5.03
2022-10-26T16:34:22.923Z,4.20
2022-10-26T16:36:51.385Z,4.78
2022-10-26T16:43:40.240Z,5.22
2022-10-26T16:46:53.640Z,5.65
2022-10-26T16:49:54.625Z,9.40
2022-10-26T16:59:25.683Z,8.55
2022-10-26T17:01:54.440Z,7.65
2022-10-26T17:04:22.718Z,5.65
2022-10-26T17:06:51.183Z,6.22
2022-10-26T17:09:19.647Z,6.07
2022-10-26T17:11:47.988Z,5.60
2022-10-26T17:14:16.463Z,5.75
2022-10-26T17:16:44.668Z,6.07
2022-10-26T17:19:13.208Z,5.75
2022-10-26T17:21:41.539Z,5.95
2022-10-26T17:24:10.196Z,5.90
2022-10-26T17:26:38.941Z,5.78
2022-10-26T17:29:07.941Z,4.85
2022-10-26T17:31:38.270Z,5.93
2022-10-26T17:34:06.682Z,4.85
2022-10-26T17:36:35.133Z,5.30
2022-10-26T17:39:03.693Z,6.20
2022-10-26T17:41:32.124Z,5.78
2022-10-26T17:44:00.464Z,5.68
2022-10-26T17:46:28.837Z,7.35
2022-10-26T17:48:58.577Z,6.72
2022-10-26T17:51:28.503Z,7.70
2022-10-26T17:53:57.708Z,7.13
2022-10-26T17:56:31.452Z,6.22
2022-10-26T17:59:02.242Z,5.22
2022-10-26T18:01:30.707Z,6.20
2022-10-26T18:03:59.427Z,6.60
2022-10-26T18:06:27.647Z,7.05
2022-10-26T18:08:58.435Z,6.95
2022-10-26T18:11:27.615Z,12.15
2022-10-26T18:13:57.238Z,8.00
2022-10-26T18:16:27.236Z,7.65
2022-10-26T18:21:43.594Z,7.70
2022-10-26T18:24:12.192Z,7.45
2022-10-26T18:26:40.564Z,43.55
2022-10-26T18:29:08.881Z,72.82
2022-10-26T18:31:37.132Z,69.88
2022-10-26T18:34:07.161Z,76.65
2022-10-26T18:39:09.147Z,145.70
2022-10-26T18:41:37.360Z,51.28
2022-10-26T18:44:05.936Z,27.50
2022-10-26T18:46:39.338Z,160.05
2022-10-26T18:49:08.849Z,469.90
2022-10-26T18:51:37.180Z,353.08
2022-10-26T18:54:05.550Z,142.38
2022-10-26T18:56:33.920Z,77.10
2022-10-26T18:59:02.553Z,43.28
2022-10-26T19:01:32.983Z,25.98
2022-10-26T19:04:11.122Z,21.42
2022-10-26T19:06:45.867Z,15.98
2022-10-26T19:09:16.468Z,10.93
2022-10-26T19:11:44.983Z,10.68
2022-10-26T19:14:14.418Z,9.50
2022-10-26T19:16:47.169Z,10.43
2022-10-26T19:19:17.576Z,9.77
2022-10-26T19:21:47.724Z,9.77
2022-10-26T19:24:22.027Z,12.43
2022-10-26T19:26:51.633Z,11.88
2022-10-26T19:29:20.934Z,10.90
2022-10-26T19:31:52.454Z,9.65
2022-10-26T19:34:21.504Z,8.82
2022-10-26T19:36:49.629Z,7.07
2022-10-26T19:39:18.756Z,8.55
2022-10-26T19:41:47.402Z,9.57
2022-10-26T19:44:16.628Z,15.55
2022-10-26T19:46:48.013Z,24.90
2022-10-26T19:49:16.451Z,25.17
2022-10-26T19:51:44.765Z,19.67
2022-10-26T19:54:13.123Z,16.60
2022-10-26T19:56:41.981Z,17.70
2022-10-26T19:59:12.045Z,15.70
2022-10-26T20:01:40.365Z,14.05
2022-10-26T20:04:08.729Z,11.27
2022-10-26T20:06:37.219Z,10.68
2022-10-26T20:09:05.623Z,9.48
2022-10-26T20:11:33.773Z,11.77
2022-10-26T20:14:02.107Z,10.63
2022-10-26T20:16:30.446Z,10.80
2022-10-26T20:19:01.785Z,12.48
2022-10-26T20:21:30.333Z,11.25
2022-10-26T20:23:58.559Z,12.50
2022-10-26T20:26:28.523Z,13.50
2022-10-26T20:28:57.254Z,14.68
2022-10-26T20:31:25.473Z,12.20
2022-10-26T20:33:54.151Z,11.35
2022-10-26T20:36:23.258Z,11.02
2022-10-26T20:38:51.857Z,11.10
2022-10-26T20:41:20.499Z,10.85
2022-10-26T20:43:49.464Z,10.55
2022-10-26T20:46:28.899Z,10.07
2022-10-26T20:48:57.431Z,11.27
2022-10-26T20:51:52.001Z,12.40
2022-10-26T20:54:49.018Z,12.80
2022-10-26T20:57:23.075Z,12.02
2022-10-26T20:59:55.934Z,12.40
2022-10-26T21:02:24.609Z,11.50
2022-10-26T21:04:52.739Z,12.43
2022-10-26T21:07:21.179Z,19.23
2022-10-26T21:09:50.212Z,15.07
2022-10-26T21:12:18.488Z,17.70
2022-10-26T21:14:46.682Z,12.75
2022-10-26T21:17:15.299Z,12.82
2022-10-26T21:19:43.514Z,11.32
2022-10-26T21:22:12.147Z,25.95
2022-10-26T21:24:40.322Z,32.00
2022-10-26T21:27:08.797Z,31.67
2022-10-26T21:29:38.661Z,36.05
2022-10-26T21:32:07.076Z,30.98
2022-10-26T21:34:35.491Z,29.67
2022-10-26T21:37:04.016Z,27.98
2022-10-26T21:39:32.805Z,24.17
2022-10-26T21:42:01.255Z,15.80
2022-10-26T21:44:40.840Z,15.07
2022-10-26T21:47:11.326Z,23.95
2022-10-26T21:52:13.575Z,23.17
2022-10-26T21:54:41.848Z,20.92
2022-10-26T21:57:10.281Z,18.45
2022-10-26T21:59:38.489Z,19.02
2022-10-26T22:02:06.927Z,42.05
2022-10-26T22:04:35.364Z,41.70
2022-10-26T22:07:03.634Z,38.05
2022-10-26T22:09:37.275Z,33.30
2022-10-26T22:12:13.234Z,29.00
2022-10-26T22:14:41.361Z,24.38
2022-10-26T22:17:09.751Z,21.33
2022-10-26T22:19:38.216Z,25.70
2022-10-26T22:22:06.705Z,27.05
2022-10-26T22:24:34.789Z,22.63
2022-10-26T22:27:03.041Z,19.50
2022-10-26T22:29:31.287Z,16.17
2022-10-26T22:31:59.490Z,14.63
2022-10-26T22:34:27.708Z,16.55
2022-10-26T22:36:55.983Z,21.27
2022-10-26T22:39:25.003Z,22.65
2022-10-26T22:41:53.125Z,28.42
2022-10-26T22:44:21.477Z,29.48
2022-10-26T22:46:49.850Z,27.85
2022-10-26T22:49:17.966Z,24.38
2022-10-26T22:51:46.250Z,20.33
2022-10-26T22:54:14.846Z,19.25
2022-10-26T22:56:43.076Z,18.45
2022-10-26T22:59:11.190Z,19.60
2022-10-26T23:01:40.724Z,19.08
2022-10-26T23:04:10.872Z,17.15
2022-10-26T23:06:39.539Z,17.67
2022-10-26T23:09:07.936Z,16.52
2022-10-26T23:11:36.093Z,15.25
2022-10-26T23:14:05.099Z,15.27
2022-10-26T23:16:33.302Z,13.98
2022-10-26T23:19:01.773Z,14.75
2022-10-26T23:21:30.176Z,15.27
2022-10-26T23:23:58.862Z,15.00
2022-10-26T23:26:27.413Z,15.80
2022-10-26T23:28:55.877Z,16.20
2022-10-26T23:31:26.350Z,17.02
2022-10-26T23:33:56.474Z,16.23
2022-10-26T23:36:24.714Z,17.70
2022-10-26T23:38:52.878Z,18.13
2022-10-26T23:41:21.188Z,16.17
2022-10-26T23:43:49.414Z,17.50
2022-10-26T23:46:17.610Z,18.80
2022-10-26T23:48:45.929Z,19.45
2022-10-26T23:51:14.096Z,19.35
2022-10-26T23:53:42.379Z,18.25
2022-10-26T23:56:10.619Z,19.58
2022-10-26T23:58:38.744Z,21.40
